createdAt,value
2022-08-16T00:00:04.235Z,10.88
2022-08-16T00:03:13.505Z,13.93
2022-08-16T00:06:18.800Z,12.40
2022-08-16T00:09:23.929Z,12.05
2022-08-16T00:12:28.978Z,10.20
2022-08-16T00:15:51.726Z,10.82
2022-08-16T00:18:58.245Z,10.70
2022-08-16T00:22:03.156Z,10.77
2022-08-16T00:25:14.260Z,10.85
2022-08-16T00:28:17.888Z,11.65
2022-08-16T00:31:24.009Z,12.82
2022-08-16T00:34:43.840Z,11.40
2022-08-16T00:37:56.758Z,10.80
2022-08-16T00:41:03.122Z,11.07
2022-08-16T00:44:12.112Z,11.48
2022-08-16T00:47:19.271Z,10.93
2022-08-16T00:50:35.752Z,9.77
2022-08-16T00:53:40.497Z,10.93
2022-08-16T00:56:57.594Z,11.02
2022-08-16T01:00:03.609Z,10.38
2022-08-16T01:03:12.578Z,11.07
2022-08-16T01:06:39.803Z,10.23
2022-08-16T01:09:43.544Z,12.10
2022-08-16T01:12:47.776Z,13.15
2022-08-16T01:16:03.045Z,12.00
2022-08-16T01:19:22.430Z,11.90
2022-08-16T01:23:01.905Z,11.57
2022-08-16T01:26:34.420Z,12.20
2022-08-16T01:29:57.971Z,12.27
2022-08-16T01:33:14.534Z,11.38
2022-08-16T01:36:26.513Z,12.55
2022-08-16T01:39:30.561Z,12.23
2022-08-16T01:42:42.346Z,14.40
2022-08-16T01:45:46.134Z,14.88
2022-08-16T01:48:56.502Z,14.40
2022-08-16T01:52:03.321Z,13.68
2022-08-16T01:55:37.151Z,12.83
2022-08-16T01:58:48.054Z,14.43
2022-08-16T02:01:59.822Z,13.73
2022-08-16T02:05:06.391Z,12.80
2022-08-16T02:08:10.595Z,9.90
2022-08-16T02:11:47.424Z,10.03
2022-08-16T02:14:53.298Z,9.23
2022-08-16T02:18:01.152Z,9.75
2022-08-16T02:21:07.565Z,8.68
2022-08-16T02:24:31.588Z,9.40
2022-08-16T02:27:34.860Z,8.43
2022-08-16T02:30:43.474Z,8.47
2022-08-16T02:33:50.707Z,7.95
2022-08-16T02:37:02.212Z,6.90
2022-08-16T02:40:07.904Z,6.70
2022-08-16T02:43:11.733Z,5.50
2022-08-16T02:46:16.610Z,6.10
2022-08-16T02:49:20.489Z,4.35
2022-08-16T02:52:29.089Z,4.63
2022-08-16T02:55:40.843Z,5.72
2022-08-16T02:58:48.739Z,4.10
2022-08-16T03:01:52.669Z,4.60
2022-08-16T03:05:05.949Z,4.40
2022-08-16T03:08:50.141Z,3.70
2022-08-16T03:11:35.471Z,4.32
2022-08-16T03:14:39.468Z,4.27
2022-08-16T03:17:53.170Z,4.50
2022-08-16T03:21:00.966Z,4.65
2022-08-16T03:24:29.376Z,4.05
2022-08-16T03:27:35.134Z,4.50
2022-08-16T03:30:40.594Z,5.00
2022-08-16T03:33:47.015Z,4.70
2022-08-16T03:36:56.379Z,5.05
2022-08-16T03:40:02.912Z,4.57
2022-08-16T03:43:19.764Z,4.47
2022-08-16T03:46:47.236Z,5.90
2022-08-16T03:49:52.441Z,3.07
2022-08-16T03:53:03.151Z,2.50
2022-08-16T03:56:18.673Z,2.50
2022-08-16T03:59:24.903Z,2.30
2022-08-16T04:02:31.463Z,2.53
2022-08-16T04:05:44.084Z,2.90
2022-08-16T04:08:49.167Z,2.70
2022-08-16T04:11:52.330Z,2.22
2022-08-16T04:14:56.484Z,2.47
2022-08-16T04:18:03.809Z,2.20
2022-08-16T04:21:07.944Z,2.00
2022-08-16T04:24:11.418Z,2.20
2022-08-16T04:27:16.835Z,1.70
2022-08-16T04:30:31.957Z,2.42
2022-08-16T04:33:50.552Z,2.73
2022-08-16T04:37:01.097Z,3.50
2022-08-16T04:40:11.243Z,1.75
2022-08-16T04:43:26.501Z,1.52
2022-08-16T04:47:02.161Z,1.67
2022-08-16T04:49:55.456Z,3.50
2022-08-16T04:52:59.482Z,1.53
2022-08-16T04:56:06.203Z,1.90
2022-08-16T04:59:16.902Z,2.47
2022-08-16T05:02:41.726Z,1.60
2022-08-16T05:05:59.395Z,2.37
2022-08-16T05:09:06.492Z,1.60
2022-08-16T05:12:11.024Z,2.00
2022-08-16T05:15:16.194Z,2.13
2022-08-16T05:18:27.042Z,1.90
2022-08-16T05:21:35.711Z,1.70
2022-08-16T05:24:39.740Z,2.20
2022-08-16T05:27:48.198Z,1.90
2022-08-16T05:30:55.605Z,2.17
2022-08-16T05:34:04.363Z,1.67
2022-08-16T05:37:13.674Z,5.67
2022-08-16T05:40:24.278Z,2.20
2022-08-16T05:43:32.167Z,2.00
2022-08-16T05:46:47.367Z,1.63
2022-08-16T05:49:54.688Z,1.83
2022-08-16T05:52:59.716Z,1.93
2022-08-16T05:56:05.480Z,1.60
2022-08-16T05:59:14.643Z,1.30
2022-08-16T06:02:19.375Z,1.90
2022-08-16T06:05:25.594Z,2.15
2022-08-16T06:08:32.535Z,1.77
2022-08-16T06:11:46.546Z,2.97
2022-08-16T06:14:51.347Z,2.67
2022-08-16T06:17:57.104Z,1.77
2022-08-16T06:21:02.579Z,2.28
2022-08-16T06:24:54.924Z,3.70
2022-08-16T06:27:39.862Z,3.10
2022-08-16T06:30:45.426Z,2.20
2022-08-16T06:33:51.876Z,2.63
2022-08-16T06:36:59.224Z,2.28
2022-08-16T06:40:05.511Z,3.00
2022-08-16T06:43:27.605Z,2.73
2022-08-16T06:46:38.997Z,2.42
2022-08-16T06:49:53.791Z,2.80
2022-08-16T06:53:08.985Z,2.00
2022-08-16T06:56:26.927Z,2.00
2022-08-16T06:59:52.832Z,4.40
2022-08-16T07:03:27.168Z,2.90
2022-08-16T07:06:32.780Z,2.28
2022-08-16T07:09:42.899Z,2.60
2022-08-16T07:13:04.525Z,2.20
2022-08-16T07:16:20.507Z,2.40
2022-08-16T07:20:02.149Z,3.30
2022-08-16T07:22:59.102Z,3.08
2022-08-16T07:26:24.395Z,3.13
2022-08-16T07:29:33.469Z,2.80
2022-08-16T07:32:39.427Z,2.40
2022-08-16T07:35:44.440Z,3.20
2022-08-16T07:38:55.288Z,2.38
2022-08-16T07:41:59.548Z,2.70
2022-08-16T07:45:07.598Z,2.20
2022-08-16T07:48:19.867Z,2.07
2022-08-16T07:51:27.899Z,2.33
2022-08-16T07:54:39.120Z,2.45
2022-08-16T07:58:03.181Z,2.60
2022-08-16T08:01:12.557Z,2.27
2022-08-16T08:04:27.070Z,2.37
2022-08-16T08:07:38.467Z,2.45
2022-08-16T08:10:49.101Z,2.45
2022-08-16T08:13:54.353Z,2.60
2022-08-16T08:17:01.630Z,2.00
2022-08-16T08:20:11.920Z,1.80
2022-08-16T08:23:16.019Z,2.22
2022-08-16T08:26:26.268Z,2.45
2022-08-16T08:29:38.033Z,2.30
2022-08-16T08:32:59.546Z,2.00
2022-08-16T08:36:24.398Z,1.80
2022-08-16T08:39:54.900Z,2.00
2022-08-16T08:43:11.945Z,2.45
2022-08-16T08:46:22.477Z,2.97
2022-08-16T08:49:46.149Z,2.33
2022-08-16T08:52:53.049Z,1.87
2022-08-16T08:55:58.984Z,2.17
2022-08-16T08:59:12.877Z,2.35
2022-08-16T09:02:20.565Z,2.38
2022-08-16T09:05:35.998Z,3.00
2022-08-16T09:08:47.517Z,2.37
2022-08-16T09:12:03.923Z,2.25
2022-08-16T09:15:17.445Z,2.65
2022-08-16T09:18:35.970Z,2.88
2022-08-16T09:21:42.396Z,2.50
2022-08-16T09:24:52.478Z,2.87
2022-08-16T09:28:02.154Z,2.70
2022-08-16T09:31:08.737Z,2.50
2022-08-16T09:34:19.465Z,2.80
2022-08-16T09:37:29.665Z,3.03
2022-08-16T09:40:43.345Z,2.50
2022-08-16T09:44:00.591Z,2.95
2022-08-16T09:47:10.212Z,2.67
2022-08-16T09:50:22.496Z,3.30
2022-08-16T09:53:27.732Z,3.03
2022-08-16T09:56:34.671Z,3.53
2022-08-16T09:59:41.989Z,3.38
2022-08-16T10:02:48.132Z,5.55
2022-08-16T10:05:51.514Z,4.25
2022-08-16T10:09:06.050Z,3.50
2022-08-16T10:12:29.414Z,4.77
2022-08-16T10:15:34.407Z,3.38
2022-08-16T10:18:48.286Z,3.60
2022-08-16T10:22:05.250Z,3.25
2022-08-16T10:25:09.441Z,3.80
2022-08-16T10:28:28.680Z,3.57
2022-08-16T10:31:44.141Z,3.08
2022-08-16T10:34:52.377Z,3.08
2022-08-16T10:37:56.229Z,47.95
2022-08-16T10:41:02.099Z,11.57
2022-08-16T10:44:09.623Z,3.93
2022-08-16T10:47:13.422Z,3.25
2022-08-16T10:50:19.004Z,3.00
2022-08-16T10:53:24.136Z,2.70
2022-08-16T10:56:55.787Z,3.13
2022-08-16T10:59:57.885Z,3.10
2022-08-16T11:03:05.142Z,3.53
2022-08-16T11:06:11.947Z,4.40
2022-08-16T11:09:25.415Z,9.98
2022-08-16T11:12:32.272Z,6.63
2022-08-16T11:15:37.258Z,6.97
2022-08-16T11:18:48.361Z,3.80
2022-08-16T11:22:22.669Z,4.00
2022-08-16T11:29:14.501Z,3.77
2022-08-16T11:32:20.246Z,3.20
2022-08-16T11:39:00.822Z,4.57
2022-08-16T11:42:07.643Z,4.05
2022-08-16T11:45:26.321Z,3.87
2022-08-16T11:48:32.800Z,4.60
2022-08-16T11:51:36.777Z,5.70
2022-08-16T11:54:41.013Z,7.15
2022-08-16T11:57:44.243Z,4.93
2022-08-16T12:00:50.673Z,5.60
2022-08-16T12:03:57.507Z,6.00
2022-08-16T12:07:03.485Z,5.07
2022-08-16T12:10:11.336Z,5.88
2022-08-16T12:13:15.806Z,5.82
2022-08-16T12:16:20.651Z,5.53
2022-08-16T12:19:35.292Z,6.20
2022-08-16T12:22:40.207Z,5.53
2022-08-16T12:25:45.837Z,6.07
2022-08-16T12:28:54.925Z,5.75
2022-08-16T12:32:12.302Z,8.17
2022-08-16T12:35:25.196Z,11.27
2022-08-16T12:38:41.425Z,10.50
2022-08-16T12:41:52.525Z,9.40
2022-08-16T12:44:56.535Z,10.68
2022-08-16T12:48:35.183Z,10.17
2022-08-16T12:51:59.640Z,16.97
2022-08-16T12:55:07.432Z,16.17
2022-08-16T12:58:14.240Z,12.07
2022-08-16T13:01:37.584Z,8.63
2022-08-16T13:04:42.029Z,6.43
2022-08-16T13:07:51.506Z,6.47
2022-08-16T13:10:56.213Z,5.13
2022-08-16T13:14:00.066Z,3.80
2022-08-16T13:17:07.740Z,3.90
2022-08-16T13:20:17.857Z,4.40
2022-08-16T13:23:22.317Z,4.83
2022-08-16T13:26:27.106Z,4.35
2022-08-16T13:29:40.164Z,4.55
2022-08-16T13:32:48.571Z,4.20
2022-08-16T13:35:58.045Z,5.40
2022-08-16T13:39:06.879Z,5.10
2022-08-16T13:42:12.225Z,4.18
2022-08-16T13:45:16.800Z,4.80
2022-08-16T13:48:24.491Z,4.63
2022-08-16T13:51:30.685Z,4.07
2022-08-16T13:54:35.132Z,3.60
2022-08-16T13:57:53.728Z,4.45
2022-08-16T14:01:02.736Z,4.40
2022-08-16T14:04:06.625Z,4.93
2022-08-16T14:07:19.932Z,4.47
2022-08-16T14:10:28.365Z,5.20
2022-08-16T14:13:35.148Z,5.70
2022-08-16T14:16:38.856Z,5.05
2022-08-16T14:19:44.721Z,5.40
2022-08-16T14:22:54.638Z,4.83
2022-08-16T14:25:59.249Z,5.47
2022-08-16T14:29:04.153Z,5.07
2022-08-16T14:32:09.405Z,4.60
2022-08-16T14:35:21.222Z,5.43
2022-08-16T14:38:37.573Z,5.40
2022-08-16T14:41:43.333Z,5.00
2022-08-16T14:44:48.160Z,4.63
2022-08-16T14:47:54.068Z,4.70
2022-08-16T14:50:57.623Z,4.82
2022-08-16T14:54:03.245Z,4.40
2022-08-16T14:57:07.620Z,9.03
2022-08-16T15:00:13.622Z,10.00
2022-08-16T15:03:22.682Z,10.27
2022-08-16T15:06:26.538Z,8.68
2022-08-16T15:09:29.813Z,8.47
2022-08-16T15:12:36.463Z,8.40
2022-08-16T15:15:44.172Z,8.70
2022-08-16T15:18:54.977Z,9.18
2022-08-16T15:21:59.021Z,7.53
2022-08-16T15:25:06.197Z,7.17
2022-08-16T15:28:30.573Z,6.83
2022-08-16T15:31:34.672Z,7.05
2022-08-16T15:34:41.777Z,7.47
2022-08-16T15:37:48.381Z,7.68
2022-08-16T15:40:59.074Z,7.30
2022-08-16T15:44:10.493Z,8.30
2022-08-16T15:47:16.949Z,7.90
2022-08-16T15:50:21.855Z,6.60
2022-08-16T15:53:25.561Z,6.22
2022-08-16T15:56:29.282Z,6.83
2022-08-16T15:59:48.242Z,6.43
2022-08-16T16:03:11.427Z,5.20
2022-08-16T16:06:20.830Z,5.47
2022-08-16T16:09:36.709Z,5.40
2022-08-16T16:12:51.630Z,5.50
2022-08-16T16:15:59.723Z,5.27
2022-08-16T16:19:02.561Z,5.90
2022-08-16T16:22:06.895Z,7.53
2022-08-16T16:25:12.670Z,6.22
2022-08-16T16:29:06.592Z,5.30
2022-08-16T16:31:43.968Z,4.87
2022-08-16T16:35:06.553Z,3.50
2022-08-16T16:38:09.437Z,3.33
2022-08-16T16:41:12.773Z,4.30
2022-08-16T16:44:18.281Z,4.53
2022-08-16T16:47:40.591Z,3.30
2022-08-16T16:50:45.427Z,3.10
2022-08-16T16:53:56.054Z,3.25
2022-08-16T16:56:59.527Z,4.00
2022-08-16T17:00:25.981Z,3.87
2022-08-16T17:03:30.866Z,3.23
2022-08-16T17:06:34.752Z,2.25
2022-08-16T17:09:40.414Z,2.10
2022-08-16T17:12:46.836Z,1.83
2022-08-16T17:15:52.692Z,1.70
2022-08-16T17:19:14.372Z,1.90
2022-08-16T17:22:21.630Z,2.28
2022-08-16T17:25:35.033Z,3.63
2022-08-16T17:28:58.086Z,2.92
2022-08-16T17:32:46.661Z,2.73
2022-08-16T17:35:33.752Z,4.20
2022-08-16T17:38:44.640Z,3.35
2022-08-16T17:41:49.560Z,4.38
2022-08-16T17:44:54.455Z,3.85
2022-08-16T17:47:57.904Z,3.80
2022-08-16T17:51:01.935Z,3.33
2022-08-16T17:54:06.371Z,3.90
2022-08-16T17:57:10.119Z,3.10
2022-08-16T18:00:19.758Z,2.97
2022-08-16T18:04:07.520Z,3.00
2022-08-16T18:06:55.630Z,3.37
2022-08-16T18:09:59.159Z,4.10
2022-08-16T18:13:04.096Z,4.32
2022-08-16T18:16:08.234Z,4.72
2022-08-16T18:19:11.923Z,4.50
2022-08-16T18:22:30.420Z,4.80
2022-08-16T18:25:35.188Z,4.50
2022-08-16T18:28:39.396Z,3.95
2022-08-16T18:31:42.788Z,3.95
2022-08-16T18:34:46.291Z,4.43
2022-08-16T18:37:50.382Z,4.00
2022-08-16T18:40:53.911Z,3.30
2022-08-16T18:44:24.987Z,3.45
2022-08-16T18:47:21.641Z,2.80
2022-08-16T18:50:25.961Z,2.60
2022-08-16T18:53:29.766Z,1.60
2022-08-16T18:56:56.588Z,1.70
2022-08-16T18:59:56.910Z,1.40
2022-08-16T19:03:12.328Z,1.80
2022-08-16T19:06:16.680Z,2.07
2022-08-16T19:09:20.039Z,3.00
2022-08-16T19:12:37.758Z,4.43
2022-08-16T19:15:46.688Z,4.80
2022-08-16T19:18:51.114Z,4.75
2022-08-16T19:21:54.878Z,3.90
2022-08-16T19:24:59.723Z,5.30
2022-08-16T19:28:04.874Z,4.38
2022-08-16T19:31:15.077Z,4.13
2022-08-16T19:34:18.778Z,4.03
2022-08-16T19:37:23.779Z,4.73
2022-08-16T19:40:37.530Z,4.47
2022-08-16T19:43:42.491Z,4.38
2022-08-16T19:46:46.995Z,4.10
2022-08-16T19:49:51.595Z,3.90
2022-08-16T19:53:19.549Z,3.70
2022-08-16T19:56:26.715Z,3.87
2022-08-16T19:59:39.887Z,3.00
2022-08-16T20:02:48.172Z,2.33
2022-08-16T20:05:52.180Z,3.42
2022-08-16T20:08:55.760Z,3.17
2022-08-16T20:12:05.574Z,3.80
2022-08-16T20:15:11.175Z,2.85
2022-08-16T20:18:21.386Z,3.45
2022-08-16T20:21:29.694Z,3.40
2022-08-16T20:24:35.624Z,3.57
2022-08-16T20:27:41.272Z,2.97
2022-08-16T20:30:44.426Z,2.97
2022-08-16T20:33:48.119Z,3.08
2022-08-16T20:36:52.164Z,2.50
2022-08-16T20:40:18.161Z,2.87
2022-08-16T20:43:19.646Z,2.80
2022-08-16T20:46:23.492Z,2.83
2022-08-16T20:49:28.876Z,2.47
2022-08-16T20:52:32.317Z,2.50
2022-08-16T20:55:37.926Z,2.80
2022-08-16T20:58:41.532Z,3.20
2022-08-16T21:01:46.329Z,3.00
2022-08-16T21:04:55.775Z,2.45
2022-08-16T21:07:59.871Z,2.92
2022-08-16T21:11:06.090Z,2.70
2022-08-16T21:14:12.518Z,3.47
2022-08-16T21:17:16.702Z,3.20
2022-08-16T21:20:23.203Z,2.90
2022-08-16T21:23:26.681Z,2.45
2022-08-16T21:26:31.080Z,2.20
2022-08-16T21:29:42.694Z,2.67
2022-08-16T21:32:47.337Z,1.92
2022-08-16T21:35:53.272Z,1.70
2022-08-16T21:38:57.242Z,2.00
2022-08-16T21:42:01.063Z,2.07
2022-08-16T21:45:05.666Z,1.80
2022-08-16T21:48:10.412Z,1.50
2022-08-16T21:51:16.621Z,1.80
2022-08-16T21:54:19.958Z,2.03
2022-08-16T21:57:24.182Z,2.70
2022-08-16T22:00:28.362Z,3.00
2022-08-16T22:03:33.734Z,3.00
2022-08-16T22:06:38.941Z,3.20
2022-08-16T22:09:43.634Z,3.30
2022-08-16T22:12:47.782Z,2.87
2022-08-16T22:15:53.699Z,3.27
2022-08-16T22:18:57.546Z,3.08
2022-08-16T22:22:02.312Z,3.50
2022-08-16T22:25:06.329Z,3.63
2022-08-16T22:28:11.820Z,2.97
2022-08-16T22:31:15.669Z,2.57
2022-08-16T22:34:20.332Z,2.70
2022-08-16T22:37:24.004Z,3.13
2022-08-16T22:40:28.023Z,2.35
2022-08-16T22:43:33.142Z,2.67
2022-08-16T22:46:37.633Z,3.37
2022-08-16T22:49:41.663Z,2.78
2022-08-16T22:52:56.387Z,2.60
2022-08-16T22:56:00.880Z,3.08
2022-08-16T22:59:04.901Z,2.30
2022-08-16T23:02:10.383Z,2.97
2022-08-16T23:05:18.821Z,3.03
2022-08-16T23:08:38.555Z,2.25
2022-08-16T23:11:43.744Z,3.08
2022-08-16T23:14:47.873Z,2.40
2022-08-16T23:17:58.359Z,2.77
2022-08-16T23:21:03.120Z,3.35
2022-08-16T23:24:09.188Z,2.97
2022-08-16T23:27:13.437Z,2.53
2022-08-16T23:30:19.931Z,2.87
2022-08-16T23:33:24.274Z,3.23
2022-08-16T23:36:28.076Z,2.85
2022-08-16T23:39:31.107Z,2.50
2022-08-16T23:42:44.197Z,3.00
2022-08-16T23:46:03.524Z,8.70
2022-08-16T23:49:55.976Z,3.37
2022-08-16T23:52:38.440Z,3.00
2022-08-16T23:55:55.994Z,3.20
2022-08-16T23:59:03.034Z,14.57
